createdAt,value
2019-03-01T00:01:39.607Z,10.13
2019-03-01T00:04:19.774Z,15.37
2019-03-01T00:06:59.769Z,19.20
2019-03-01T00:09:39.919Z,20.97
2019-03-01T00:12:19.893Z,11.70
2019-03-01T00:15:00.296Z,13.67
2019-03-01T00:17:40.774Z,13.00
2019-03-01T00:20:21.246Z,13.23
2019-03-01T00:23:01.398Z,19.20
2019-03-01T00:25:41.757Z,13.50
2019-03-01T00:28:21.770Z,19.87
2019-03-01T00:31:01.425Z,11.77
2019-03-01T00:33:41.430Z,12.80
2019-03-01T00:36:21.558Z,14.80
2019-03-01T00:39:01.409Z,9.93
2019-03-01T00:41:42.950Z,8.53
2019-03-01T00:44:23.754Z,12.67
2019-03-01T00:47:03.499Z,10.60
2019-03-01T00:49:44.108Z,15.10
2019-03-01T00:52:24.129Z,11.53
2019-03-01T00:55:03.720Z,17.97
2019-03-01T00:57:43.809Z,13.23
2019-03-01T01:00:23.719Z,11.07
2019-03-01T01:03:03.959Z,6.63
2019-03-01T01:05:43.726Z,8.63
2019-03-01T01:08:23.847Z,11.50
2019-03-01T01:11:03.941Z,9.33
2019-03-01T01:13:43.655Z,11.57
2019-03-01T01:16:23.981Z,14.10
2019-03-01T01:19:03.823Z,11.07
2019-03-01T01:21:43.682Z,13.90
2019-03-01T01:24:24.076Z,10.17
2019-03-01T01:27:03.981Z,11.03
2019-03-01T01:29:43.672Z,8.67
2019-03-01T01:32:24.161Z,8.17
2019-03-01T01:35:03.990Z,16.53
2019-03-01T01:37:44.446Z,9.93
2019-03-01T01:40:24.436Z,14.00
2019-03-01T01:43:04.115Z,15.73
2019-03-01T01:45:44.400Z,16.60
2019-03-01T01:48:24.814Z,12.30
2019-03-01T01:51:04.805Z,9.70
2019-03-01T01:53:44.696Z,12.53
2019-03-01T01:56:25.155Z,14.57
2019-03-01T01:59:05.105Z,11.70
2019-03-01T02:01:44.843Z,8.77
2019-03-01T02:04:24.944Z,9.27
2019-03-01T02:07:05.421Z,11.30
2019-03-01T02:09:45.245Z,11.00
2019-03-01T02:12:25.157Z,13.70
2019-03-01T02:15:04.886Z,9.57
2019-03-01T02:17:45.690Z,8.10
2019-03-01T02:20:25.401Z,11.10
2019-03-01T02:23:05.530Z,12.97
2019-03-01T02:25:45.323Z,13.97
2019-03-01T02:28:25.111Z,14.17
2019-03-01T02:31:05.446Z,12.53
2019-03-01T02:33:45.890Z,8.40
2019-03-01T02:36:25.815Z,6.53
2019-03-01T02:39:05.843Z,5.80
2019-03-01T02:41:45.934Z,7.97
2019-03-01T02:44:25.966Z,7.07
2019-03-01T02:47:06.173Z,15.70
2019-03-01T02:49:46.189Z,12.63
2019-03-01T02:52:26.180Z,11.13
2019-03-01T02:55:06.050Z,10.03
2019-03-01T02:57:46.246Z,6.87
2019-03-01T03:00:26.540Z,10.53
2019-03-01T03:03:06.650Z,10.53
2019-03-01T03:06:06.107Z,9.93
2019-03-01T03:08:45.438Z,10.47
2019-03-01T03:11:25.495Z,8.07
2019-03-01T03:14:06.097Z,7.27
2019-03-01T03:16:45.903Z,8.70
2019-03-01T03:19:25.883Z,7.90
2019-03-01T03:22:06.148Z,9.30
2019-03-01T03:24:46.008Z,6.43
2019-03-01T03:27:26.167Z,12.97
2019-03-01T03:30:06.406Z,6.37
2019-03-01T03:32:46.219Z,8.73
2019-03-01T03:35:26.059Z,9.63
2019-03-01T03:38:06.157Z,10.00
2019-03-01T03:40:46.023Z,8.00
2019-03-01T03:43:26.259Z,6.80
2019-03-01T03:46:05.996Z,7.73
2019-03-01T03:48:46.562Z,14.63
2019-03-01T03:51:26.898Z,9.27
2019-03-01T03:54:06.190Z,16.70
2019-03-01T03:56:46.591Z,9.47
2019-03-01T03:59:26.476Z,6.07
2019-03-01T04:02:06.791Z,8.03
2019-03-01T04:04:47.166Z,5.43
2019-03-01T04:07:27.090Z,6.10
2019-03-01T04:10:07.362Z,6.00
2019-03-01T04:12:47.469Z,9.70
2019-03-01T04:15:27.683Z,7.13
2019-03-01T04:18:07.192Z,6.20
2019-03-01T04:20:47.181Z,8.93
2019-03-01T04:23:27.650Z,6.30
2019-03-01T04:26:07.653Z,7.30
2019-03-01T04:28:47.630Z,7.57
2019-03-01T04:31:27.514Z,11.30
2019-03-01T04:34:07.690Z,6.10
2019-03-01T04:36:47.609Z,8.33
2019-03-01T04:39:27.650Z,9.87
2019-03-01T04:42:07.865Z,7.90
2019-03-01T04:44:47.829Z,7.87
2019-03-01T04:47:27.684Z,15.73
2019-03-01T04:50:07.903Z,9.30
2019-03-01T04:52:47.954Z,6.10
2019-03-01T04:55:27.868Z,7.40
2019-03-01T04:58:07.840Z,7.37
2019-03-01T05:00:48.385Z,8.33
2019-03-01T05:03:28.436Z,6.33
2019-03-01T05:06:08.537Z,7.63
2019-03-01T05:08:48.787Z,6.90
2019-03-01T05:11:29.412Z,10.33
2019-03-01T05:14:09.598Z,11.93
2019-03-01T05:16:49.841Z,7.10
2019-03-01T05:19:30.022Z,9.93
2019-03-01T05:22:09.838Z,13.80
2019-03-01T05:24:49.943Z,12.07
2019-03-01T05:27:29.817Z,8.43
2019-03-01T05:30:09.828Z,7.83
2019-03-01T05:32:50.073Z,7.67
2019-03-01T05:35:31.842Z,7.23
2019-03-01T05:38:21.303Z,5.10
2019-03-01T05:40:54.432Z,7.50
2019-03-01T05:43:33.870Z,11.27
2019-03-01T05:46:14.244Z,8.83
2019-03-01T05:48:54.538Z,6.50
2019-03-01T05:51:34.950Z,4.50
2019-03-01T05:54:15.830Z,7.87
2019-03-01T05:56:55.383Z,7.33
2019-03-01T05:59:35.421Z,6.53
2019-03-01T06:02:15.614Z,3.83
2019-03-01T06:04:55.908Z,6.63
2019-03-01T06:07:35.770Z,8.80
2019-03-01T06:10:15.937Z,5.47
2019-03-01T06:12:55.617Z,6.23
2019-03-01T06:15:35.511Z,5.70
2019-03-01T06:18:15.301Z,8.27
2019-03-01T06:20:56.510Z,5.50
2019-03-01T06:23:36.061Z,5.17
2019-03-01T06:26:16.104Z,7.37
2019-03-01T06:28:56.352Z,4.40
2019-03-01T06:31:37.640Z,5.33
2019-03-01T06:34:18.384Z,9.17
2019-03-01T06:36:59.536Z,7.80
2019-03-01T06:42:46.134Z,4.73
2019-03-01T06:45:26.399Z,11.20
2019-03-01T06:48:06.473Z,6.37
2019-03-01T06:50:52.538Z,6.63
2019-03-01T06:53:32.523Z,6.60
2019-03-01T06:56:12.646Z,6.73
2019-03-01T06:58:52.719Z,7.53
2019-03-01T07:01:36.725Z,6.30
2019-03-01T07:04:19.761Z,10.90
2019-03-01T07:06:59.421Z,5.13
2019-03-01T07:09:39.046Z,7.30
2019-03-01T07:12:19.451Z,8.63
2019-03-01T07:14:59.062Z,8.13
2019-03-01T07:17:39.757Z,5.40
2019-03-01T07:20:19.495Z,7.77
2019-03-01T07:22:59.801Z,6.73
2019-03-01T07:25:39.603Z,8.07
2019-03-01T07:28:19.470Z,6.17
2019-03-01T07:31:00.614Z,7.07
2019-03-01T07:33:41.017Z,6.13
2019-03-01T07:36:20.842Z,7.00
2019-03-01T07:39:00.946Z,8.00
2019-03-01T07:41:41.108Z,6.00
2019-03-01T07:44:20.950Z,6.30
2019-03-01T07:47:01.011Z,6.77
2019-03-01T07:49:41.349Z,4.80
2019-03-01T07:52:22.463Z,6.73
2019-03-01T07:55:02.339Z,6.13
2019-03-01T07:57:42.809Z,8.23
2019-03-01T08:00:22.797Z,6.07
2019-03-01T08:03:02.812Z,6.47
2019-03-01T08:05:43.027Z,5.90
2019-03-01T08:08:22.978Z,5.57
2019-03-01T08:11:02.714Z,8.90
2019-03-01T08:13:42.846Z,6.67
2019-03-01T08:16:25.099Z,5.33
2019-03-01T08:19:05.273Z,10.13
2019-03-01T08:21:45.885Z,6.80
2019-03-01T08:24:27.346Z,7.17
2019-03-01T08:27:09.917Z,7.13
2019-03-01T08:29:49.578Z,9.70
2019-03-01T08:35:31.954Z,6.40
2019-03-01T08:38:10.950Z,6.97
2019-03-01T08:40:51.030Z,5.93
2019-03-01T08:43:30.710Z,6.63
2019-03-01T08:46:10.741Z,5.67
2019-03-01T08:48:51.191Z,5.70
2019-03-01T08:51:31.145Z,8.40
2019-03-01T08:54:11.198Z,7.57
2019-03-01T08:56:51.394Z,6.50
2019-03-01T08:59:31.113Z,6.50
2019-03-01T09:02:11.939Z,8.43
2019-03-01T09:04:52.539Z,7.40
2019-03-01T09:07:32.702Z,7.00
2019-03-01T09:10:12.374Z,6.67
2019-03-01T09:12:40.264Z,5.83
2019-03-01T09:15:28.926Z,7.40
2019-03-01T09:18:16.429Z,7.60
2019-03-01T09:21:05.897Z,10.37
2019-03-01T09:23:54.789Z,7.83
2019-03-01T09:26:40.768Z,8.47
2019-03-01T09:29:27.222Z,8.20
2019-03-01T09:32:14.417Z,7.43
2019-03-01T09:35:20.778Z,8.73
2019-03-01T09:38:08.429Z,6.83
2019-03-01T09:40:57.582Z,10.17
2019-03-01T09:43:45.518Z,7.87
2019-03-01T09:46:32.912Z,7.07
2019-03-01T09:49:13.529Z,6.17
2019-03-01T09:51:53.619Z,7.73
2019-03-01T09:54:33.510Z,9.10
2019-03-01T09:57:15.570Z,10.20
2019-03-01T09:59:55.858Z,8.30
2019-03-01T10:02:35.666Z,6.77
2019-03-01T10:05:15.126Z,8.53
2019-03-01T10:07:55.174Z,6.00
2019-03-01T10:10:35.952Z,5.33
2019-03-01T10:13:15.990Z,6.80
2019-03-01T10:15:55.742Z,6.70
2019-03-01T10:18:36.122Z,7.97
2019-03-01T10:21:15.974Z,5.70
2019-03-01T10:23:56.586Z,6.10
2019-03-01T10:26:36.294Z,5.13
2019-03-01T10:29:16.307Z,8.00
2019-03-01T10:31:56.441Z,4.43
2019-03-01T10:34:36.742Z,4.47
2019-03-01T10:37:16.630Z,5.10
2019-03-01T10:39:56.817Z,7.47
2019-03-01T10:42:36.949Z,6.37
2019-03-01T10:45:17.333Z,5.97
2019-03-01T10:47:57.415Z,4.23
2019-03-01T10:50:37.556Z,4.40
2019-03-01T10:53:17.104Z,4.80
2019-03-01T10:55:57.105Z,4.80
2019-03-01T10:58:37.070Z,4.80
2019-03-01T11:01:17.186Z,4.57
2019-03-01T11:03:57.429Z,3.33
2019-03-01T11:06:36.954Z,4.40
2019-03-01T11:09:17.149Z,3.97
2019-03-01T11:11:57.700Z,3.63
2019-03-01T11:14:38.256Z,4.30
2019-03-01T11:17:18.385Z,2.63
2019-03-01T11:19:58.869Z,3.67
2019-03-01T11:22:38.777Z,4.87
2019-03-01T11:25:19.058Z,5.80
2019-03-01T11:27:59.288Z,7.23
2019-03-01T11:30:39.101Z,4.30
2019-03-01T11:33:18.969Z,4.70
2019-03-01T11:35:59.290Z,8.13
2019-03-01T11:38:39.448Z,7.30
2019-03-01T11:41:19.495Z,7.20
2019-03-01T11:43:59.288Z,5.47
2019-03-01T11:46:39.537Z,3.97
2019-03-01T11:49:19.602Z,3.60
2019-03-01T11:51:59.690Z,5.20
2019-03-01T11:54:39.553Z,5.50
2019-03-01T11:57:19.838Z,4.63
2019-03-01T11:59:59.733Z,6.77
2019-03-01T12:02:39.757Z,4.77
2019-03-01T12:05:19.800Z,3.70
2019-03-01T12:07:59.815Z,4.03
2019-03-01T12:10:39.786Z,5.67
2019-03-01T12:13:19.246Z,3.67
2019-03-01T12:15:59.522Z,6.27
2019-03-01T12:18:39.173Z,5.83
2019-03-01T12:21:19.047Z,4.13
2019-03-01T12:23:58.848Z,3.97
2019-03-01T12:26:38.900Z,4.77
2019-03-01T12:29:19.327Z,4.20
2019-03-01T12:31:59.225Z,8.20
2019-03-01T12:34:39.381Z,5.83
2019-03-01T12:37:19.266Z,3.57
2019-03-01T12:39:59.622Z,3.90
2019-03-01T12:42:39.783Z,3.17
2019-03-01T12:45:19.914Z,4.40
2019-03-01T12:47:59.698Z,3.43
2019-03-01T12:50:41.857Z,4.27
2019-03-01T12:53:22.310Z,8.50
2019-03-01T12:56:02.166Z,4.07
2019-03-01T12:58:42.209Z,4.73
2019-03-01T13:01:22.525Z,2.93
2019-03-01T13:04:02.486Z,5.27
2019-03-01T13:06:42.660Z,5.57
2019-03-01T13:09:23.477Z,6.63
2019-03-01T13:12:04.246Z,7.77
2019-03-01T13:14:44.303Z,8.10
2019-03-01T13:17:25.081Z,7.47
2019-03-01T13:20:04.969Z,8.27
2019-03-01T13:22:44.963Z,9.40
2019-03-01T13:25:25.883Z,9.47
2019-03-01T13:28:07.121Z,6.97
2019-03-01T13:30:47.334Z,8.90
2019-03-01T13:33:27.526Z,13.77
2019-03-01T13:36:07.489Z,7.77
2019-03-01T13:38:47.718Z,7.23
2019-03-01T13:41:27.962Z,7.40
2019-03-01T13:44:08.098Z,7.80
2019-03-01T13:46:48.126Z,8.83
2019-03-01T13:49:30.380Z,9.20
2019-03-01T13:52:10.263Z,13.90
2019-03-01T13:54:52.294Z,11.77
2019-03-01T13:57:32.566Z,10.57
2019-03-01T14:00:12.901Z,8.63
2019-03-01T14:02:53.161Z,7.80
2019-03-01T14:05:34.013Z,6.63
2019-03-01T14:08:14.158Z,7.50
2019-03-01T14:10:54.382Z,7.90
2019-03-01T14:13:34.643Z,6.00
2019-03-01T14:16:17.166Z,5.63
2019-03-01T14:18:58.828Z,4.03
2019-03-01T14:21:38.361Z,6.20
2019-03-01T14:24:18.838Z,4.03
2019-03-01T14:26:59.430Z,5.37
2019-03-01T14:29:39.357Z,5.10
2019-03-01T14:32:21.719Z,5.73
2019-03-01T14:35:01.491Z,6.60
2019-03-01T14:37:41.777Z,7.37
2019-03-01T14:40:22.486Z,7.53
2019-03-01T14:43:03.864Z,9.10
2019-03-01T14:45:44.739Z,5.97
2019-03-01T14:48:26.345Z,9.73
2019-03-01T14:51:07.096Z,6.07
2019-03-01T14:53:48.286Z,6.67
2019-03-01T14:56:31.151Z,7.43
2019-03-01T14:59:10.810Z,6.87
2019-03-01T15:01:50.681Z,10.03
2019-03-01T15:04:30.840Z,9.67
2019-03-01T15:07:10.660Z,9.60
2019-03-01T15:09:53.369Z,8.93
2019-03-01T15:12:32.938Z,9.17
2019-03-01T15:15:13.024Z,9.63
2019-03-01T15:17:53.846Z,11.23
2019-03-01T15:20:33.794Z,11.00
2019-03-01T15:23:15.145Z,15.23
2019-03-01T15:25:55.353Z,17.40
2019-03-01T15:28:35.794Z,14.17
2019-03-01T15:31:15.769Z,14.80
2019-03-01T15:33:55.806Z,14.87
2019-03-01T15:36:35.453Z,17.93
2019-03-01T15:39:16.744Z,16.23
2019-03-01T15:41:57.638Z,20.07
2019-03-01T15:44:37.601Z,21.10
2019-03-01T15:47:16.989Z,16.13
2019-03-01T15:49:57.307Z,17.77
2019-03-01T15:52:37.386Z,18.00
2019-03-01T15:55:17.492Z,16.97
2019-03-01T15:57:57.603Z,21.07
2019-03-01T16:00:37.674Z,19.23
2019-03-01T16:03:17.510Z,20.70
2019-03-01T16:05:57.578Z,19.40
2019-03-01T16:08:38.102Z,26.80
2019-03-01T16:11:18.563Z,21.13
2019-03-01T16:13:59.022Z,22.97
2019-03-01T16:16:38.886Z,21.67
2019-03-01T16:19:19.170Z,22.73
2019-03-01T16:21:59.259Z,25.27
2019-03-01T16:24:41.600Z,23.27
2019-03-01T16:27:21.648Z,26.40
2019-03-01T16:30:01.264Z,28.63
2019-03-01T16:32:49.512Z,30.67
2019-03-01T16:35:23.339Z,28.90
2019-03-01T16:38:03.861Z,29.53
2019-03-01T16:40:44.065Z,35.03
2019-03-01T16:43:25.418Z,38.57
2019-03-01T16:46:06.687Z,37.97
2019-03-01T16:48:48.706Z,41.97
2019-03-01T16:51:28.489Z,47.33
2019-03-01T16:54:08.569Z,49.57
2019-03-01T16:56:48.625Z,48.43
2019-03-01T16:59:28.866Z,53.13
2019-03-01T17:02:08.892Z,50.47
2019-03-01T17:04:48.746Z,49.80
2019-03-01T17:07:28.753Z,48.20
2019-03-01T17:10:08.473Z,51.30
2019-03-01T17:12:51.760Z,53.80
2019-03-01T17:15:30.926Z,56.17
2019-03-01T17:18:12.301Z,62.47
2019-03-01T17:20:52.965Z,59.30
2019-03-01T17:23:35.966Z,59.13
2019-03-01T17:26:14.949Z,66.63
2019-03-01T17:28:54.571Z,63.87
2019-03-01T17:31:34.863Z,64.00
2019-03-01T17:34:15.041Z,69.43
2019-03-01T17:36:54.640Z,83.77
2019-03-01T17:39:34.827Z,70.03
2019-03-01T17:42:17.522Z,69.20
2019-03-01T17:44:56.918Z,82.20
2019-03-01T17:47:37.478Z,65.27
2019-03-01T17:50:18.229Z,70.93
2019-03-01T17:52:58.169Z,76.10
2019-03-01T17:55:38.443Z,84.93
2019-03-01T17:58:18.715Z,73.27
2019-03-01T18:01:02.645Z,79.90
2019-03-01T18:03:40.881Z,70.27
2019-03-01T18:06:20.906Z,84.67
2019-03-01T18:09:00.779Z,85.93
2019-03-01T18:11:44.575Z,84.83
2019-03-01T18:14:23.389Z,90.83
2019-03-01T18:17:03.728Z,90.63
2019-03-01T18:19:44.101Z,90.20
2019-03-01T18:22:26.528Z,94.40
2019-03-01T18:25:05.024Z,88.57
2019-03-01T18:27:45.566Z,97.47
2019-03-01T18:30:25.658Z,85.97
2019-03-01T18:33:05.635Z,88.37
2019-03-01T18:35:45.544Z,93.43
2019-03-01T18:38:27.543Z,93.63
2019-03-01T18:41:07.743Z,92.30
2019-03-01T18:43:49.284Z,90.60
2019-03-01T18:46:29.949Z,95.73
2019-03-01T18:49:10.332Z,105.73
2019-03-01T18:51:50.461Z,98.20
2019-03-01T18:54:30.894Z,95.33
2019-03-01T18:57:10.737Z,96.57
2019-03-01T18:59:50.520Z,98.77
2019-03-01T19:02:30.726Z,105.83
2019-03-01T19:05:10.421Z,104.87
2019-03-01T19:07:51.365Z,99.13
2019-03-01T19:10:31.227Z,98.47
2019-03-01T19:13:12.471Z,108.13
2019-03-01T19:15:54.604Z,111.20
2019-03-01T19:18:34.594Z,104.80
2019-03-01T19:21:17.308Z,115.83
2019-03-01T19:23:56.712Z,100.77
2019-03-01T19:26:37.361Z,109.87
2019-03-01T19:29:17.809Z,100.23
2019-03-01T19:31:58.150Z,114.37
2019-03-01T19:34:38.922Z,102.13
2019-03-01T19:37:19.168Z,112.77
2019-03-01T19:39:59.265Z,100.37
2019-03-01T19:42:39.578Z,96.13
2019-03-01T19:45:19.733Z,96.47
2019-03-01T19:48:03.056Z,89.33
2019-03-01T19:50:43.502Z,93.83
2019-03-01T19:53:25.465Z,87.70
2019-03-01T19:56:05.958Z,108.03
2019-03-01T19:58:48.085Z,98.97
2019-03-01T20:01:27.902Z,90.27
2019-03-01T20:04:08.123Z,93.63
2019-03-01T20:06:49.506Z,92.47
2019-03-01T20:09:29.576Z,86.17
2019-03-01T20:12:10.122Z,95.23
2019-03-01T20:14:50.248Z,94.07
2019-03-01T20:17:30.367Z,86.13
2019-03-01T20:20:12.314Z,89.30
2019-03-01T20:22:54.102Z,87.73
2019-03-01T20:25:34.489Z,90.87
2019-03-01T20:28:15.303Z,86.90
2019-03-01T20:30:56.312Z,84.67
2019-03-01T20:33:35.848Z,82.77
2019-03-01T20:36:17.749Z,85.97
2019-03-01T20:38:58.093Z,82.13
2019-03-01T20:41:39.516Z,75.60
2019-03-01T20:44:20.323Z,85.03
2019-03-01T20:47:00.192Z,76.97
2019-03-01T20:49:40.450Z,77.37
2019-03-01T20:52:21.097Z,85.50
2019-03-01T20:55:01.757Z,71.33
2019-03-01T20:57:42.005Z,77.53
2019-03-01T21:00:22.579Z,72.43
2019-03-01T21:03:04.378Z,72.53
2019-03-01T21:05:44.085Z,73.83
2019-03-01T21:08:28.748Z,69.83
2019-03-01T21:11:07.585Z,71.53
2019-03-01T21:13:49.079Z,68.40
2019-03-01T21:16:30.091Z,65.77
2019-03-01T21:18:59.770Z,71.67
2019-03-01T21:21:46.399Z,75.10
2019-03-01T21:24:33.629Z,73.10
2019-03-01T21:27:22.683Z,72.43
2019-03-01T21:30:28.598Z,63.67
2019-03-01T21:33:15.953Z,77.70
2019-03-01T21:36:02.549Z,67.67
2019-03-01T21:38:50.291Z,68.93
2019-03-01T21:44:37.830Z,68.57
2019-03-01T21:47:24.561Z,67.60
2019-03-01T21:50:07.539Z,77.17
2019-03-01T21:52:46.905Z,64.13
2019-03-01T21:55:28.506Z,69.23
2019-03-01T21:58:09.156Z,73.10
2019-03-01T22:00:50.017Z,61.17
2019-03-01T22:03:30.507Z,58.70
2019-03-01T22:06:11.164Z,67.80
2019-03-01T22:08:51.389Z,64.27
2019-03-01T22:11:31.696Z,61.90
2019-03-01T22:14:14.040Z,53.30
2019-03-01T22:16:53.529Z,52.37
2019-03-01T22:19:33.669Z,54.80
2019-03-01T22:22:14.124Z,50.77
2019-03-01T22:24:54.018Z,59.40
2019-03-01T22:27:34.152Z,56.60
2019-03-01T22:30:13.902Z,46.40
2019-03-01T22:32:53.896Z,52.73
2019-03-01T22:35:34.209Z,42.53
2019-03-01T22:38:14.149Z,46.47
2019-03-01T22:40:53.982Z,41.83
2019-03-01T22:43:33.914Z,39.83
2019-03-01T22:46:14.367Z,38.57
2019-03-01T22:48:56.624Z,39.70
2019-03-01T22:51:36.388Z,40.33
2019-03-01T22:54:17.811Z,33.27
2019-03-01T22:56:58.709Z,33.67
2019-03-01T22:59:38.455Z,39.33
2019-03-01T23:02:20.031Z,47.87
2019-03-01T23:05:03.563Z,39.57
2019-03-01T23:07:43.074Z,43.10
2019-03-01T23:10:23.274Z,52.23
2019-03-01T23:13:03.185Z,42.93
2019-03-01T23:15:43.408Z,44.50
2019-03-01T23:18:24.205Z,45.87
2019-03-01T23:21:04.421Z,40.38
2019-03-01T23:23:44.110Z,46.80
2019-03-01T23:26:24.326Z,46.80
2019-03-01T23:29:04.569Z,44.45
2019-03-01T23:31:44.624Z,42.33
2019-03-01T23:34:24.346Z,47.30
2019-03-01T23:37:04.540Z,45.57
2019-03-01T23:39:44.359Z,45.87
2019-03-01T23:42:24.604Z,51.68
2019-03-01T23:45:04.265Z,49.77
2019-03-01T23:47:44.522Z,48.87
2019-03-01T23:50:24.529Z,43.63
2019-03-01T23:53:04.480Z,51.10
2019-03-01T23:55:44.569Z,46.00
2019-03-01T23:58:24.848Z,49.73
